Time;durP1;ratioP1;P1;durP2;ratioP2;P2;SDS_P1;SDS_P2;PMS_P1;PMS_P2;Temp;Humidity;BMP_temperature;BMP_pressure;BME280_temperature;BME280_humidity;BME280_pressure;Samples;Min_cycle;Max_cycle;Signal;HPM_P1;HPM_P2
2022/08/14 00:01:07;;;;;;;5.95;4.47;;;23.60;69.10;;;;;;4972712;28;20109;-39
2022/08/14 00:03:33;;;;;;;4.63;3.80;;;23.50;69.40;;;;;;4971031;28;20142;-40
2022/08/14 00:06:00;;;;;;;6.03;4.53;;;23.50;69.70;;;;;;4969761;28;20037;-37
2022/08/14 00:08:26;;;;;;;4.82;3.92;;;23.50;70.00;;;;;;4971571;28;20073;-39
2022/08/14 00:10:53;;;;;;;6.40;4.50;;;23.50;69.90;;;;;;4968721;28;20034;-39
2022/08/14 00:13:20;;;;;;;8.05;3.58;;;23.50;70.00;;;;;;4971169;28;20455;-38
2022/08/14 00:15:48;;;;;;;9.23;4.82;;;23.50;70.10;;;;;;4970090;28;20125;-37
2022/08/14 00:18:17;;;;;;;4.55;3.95;;;23.50;70.30;;;;;;4971299;28;20539;-38
2022/08/14 00:20:43;;;;;;;6.18;4.20;;;23.50;70.70;;;;;;4971238;28;21456;-38
2022/08/14 00:23:11;;;;;;;6.40;4.15;;;23.40;70.90;;;;;;4970715;28;20057;-44
2022/08/14 00:25:37;;;;;;;5.18;4.40;;;23.40;71.10;;;;;;4968854;28;20038;-38
2022/08/14 00:28:06;;;;;;;6.30;4.00;;;23.30;71.50;;;;;;4971375;28;20515;-37
2022/08/14 00:30:32;;;;;;;5.00;4.00;;;23.30;72.00;;;;;;4966836;28;20038;-37
2022/08/14 00:32:57;;;;;;;5.00;3.58;;;23.20;72.20;;;;;;4970223;28;20089;-39
2022/08/14 00:35:23;;;;;;;7.32;5.15;;;23.30;72.50;;;;;;4964066;28;20133;-38
2022/08/14 00:37:49;;;;;;;6.25;4.13;;;23.20;72.60;;;;;;4968577;28;20045;-39
2022/08/14 00:40:17;;;;;;;6.90;5.32;;;23.20;73.10;;;;;;4968940;28;20476;-37
2022/08/14 00:42:43;;;;;;;5.60;5.00;;;23.10;73.90;;;;;;4969424;28;20066;-39
2022/08/14 00:45:11;;;;;;;7.35;5.25;;;23.00;74.30;;;;;;4968744;28;20038;-37
2022/08/14 00:47:38;;;;;;;5.80;4.95;;;23.00;74.80;;;;;;4969955;28;20042;-36
2022/08/14 00:50:06;;;;;;;6.10;4.55;;;22.90;74.80;;;;;;4971632;28;20043;-37
2022/08/14 00:52:33;;;;;;;8.38;4.45;;;22.90;75.00;;;;;;4966059;28;20492;-39
2022/08/14 00:54:59;;;;;;;5.03;4.53;;;22.80;75.30;;;;;;4970254;28;20085;-38
2022/08/14 00:57:27;;;;;;;5.88;4.25;;;22.80;75.70;;;;;;4970520;28;20098;-40
2022/08/14 00:59:55;;;;;;;6.47;4.90;;;22.80;75.60;;;;;;4970540;28;20043;-38
2022/08/14 01:02:24;;;;;;;6.47;4.57;;;22.80;75.70;;;;;;4967150;28;20085;-36
2022/08/14 01:04:56;;;;;;;7.07;4.28;;;22.80;75.90;;;;;;4967106;28;20081;-39
2022/08/14 01:07:24;;;;;;;7.22;4.60;;;22.70;76.20;;;;;;4970825;28;20093;-37
2022/08/14 01:09:55;;;;;;;5.80;4.75;;;22.70;76.20;;;;;;4954019;28;20057;-37
2022/08/14 01:12:23;;;;;;;5.30;4.55;;;22.70;76.80;;;;;;4969522;28;20057;-38
2022/08/14 01:14:51;;;;;;;7.88;4.20;;;22.70;76.70;;;;;;4969259;28;20404;-38
2022/08/14 01:17:18;;;;;;;4.70;3.70;;;22.60;76.70;;;;;;4969630;28;20073;-37
2022/08/14 01:22:29;;;;;;;8.65;4.35;;;22.60;76.70;;;;;;4967456;28;20126;-36
2022/08/14 01:24:56;;;;;;;5.82;4.53;;;22.60;76.70;;;;;;4969754;28;20122;-38
2022/08/14 01:27:23;;;;;;;4.22;3.83;;;22.60;77.00;;;;;;4967778;28;20563;-37
2022/08/14 01:29:52;;;;;;;5.82;4.00;;;22.60;77.30;;;;;;4970625;28;20043;-38
2022/08/14 01:32:18;;;;;;;7.20;4.43;;;22.60;77.60;;;;;;4971106;28;20053;-38
2022/08/14 01:34:52;;;;;;;5.70;4.70;;;22.60;77.70;;;;;;4967324;28;20054;-38
2022/08/14 01:37:23;;;;;;;4.88;3.83;;;22.50;77.70;;;;;;4970507;28;20046;-38
2022/08/14 01:39:50;;;;;;;5.57;4.18;;;22.50;77.70;;;;;;4970387;28;20078;-40
2022/08/14 01:42:16;;;;;;;6.60;4.82;;;22.40;78.10;;;;;;4968061;28;20043;-36
2022/08/14 01:44:42;;;;;;;6.43;4.07;;;22.40;78.20;;;;;;4970226;28;20038;-38
2022/08/14 01:47:12;;;;;;;5.70;4.50;;;22.40;78.30;;;;;;4970746;28;20034;-38
2022/08/14 01:49:39;;;;;;;5.72;4.05;;;22.40;78.40;;;;;;4971931;28;20039;-38
2022/08/14 01:52:06;;;;;;;5.72;3.90;;;22.40;78.60;;;;;;4964567;28;20405;-36
2022/08/14 01:54:33;;;;;;;4.70;3.83;;;22.30;78.60;;;;;;4967733;28;20062;-37
2022/08/14 01:56:58;;;;;;;5.15;3.85;;;22.40;78.70;;;;;;4961432;28;20035;-41
2022/08/14 01:59:31;;;;;;;6.82;4.40;;;22.30;78.70;;;;;;4965922;28;20090;-40
2022/08/14 02:02:00;;;;;;;7.40;4.60;;;22.40;78.80;;;;;;4966966;28;20031;-38
2022/08/14 02:04:30;;;;;;;5.40;4.18;;;22.30;78.70;;;;;;4969223;28;20081;-39
2022/08/14 02:06:56;;;;;;;6.07;4.70;;;22.30;78.90;;;;;;4967717;28;20400;-38
2022/08/14 02:09:22;;;;;;;7.93;4.15;;;22.30;78.90;;;;;;4970294;28;20051;-40
2022/08/14 02:11:49;;;;;;;5.15;4.60;;;22.30;79.00;;;;;;4967219;28;20133;-39
2022/08/14 02:14:16;;;;;;;4.75;3.65;;;22.30;79.30;;;;;;4966641;28;20038;-40
2022/08/14 02:16:51;;;;;;;7.07;4.88;;;22.30;79.40;;;;;;4968761;28;20049;-38
2022/08/14 02:19:20;;;;;;;6.55;4.15;;;22.20;79.80;;;;;;4968846;28;20059;-39
2022/08/14 02:21:49;;;;;;;5.53;4.43;;;22.20;79.70;;;;;;4967730;28;20535;-39
2022/08/14 02:24:17;;;;;;;5.57;4.47;;;22.10;79.80;;;;;;4968150;28;20039;-37
2022/08/14 02:26:47;;;;;;;7.00;4.55;;;22.10;80.00;;;;;;4963758;28;20493;-41
2022/08/14 02:29:21;;;;;;;5.32;4.20;;;22.10;80.00;;;;;;4966000;28;20045;-38
2022/08/14 02:31:50;;;;;;;5.75;4.70;;;22.10;80.20;;;;;;4967272;28;20054;-39
2022/08/14 02:34:31;;;;;;;6.43;4.70;;;22.10;80.50;;;;;;4969087;28;20050;-40
2022/08/14 02:37:04;;;;;;;6.80;5.22;;;22.00;80.70;;;;;;4967379;28;20043;-38
2022/08/14 02:39:30;;;;;;;7.40;4.65;;;22.00;81.00;;;;;;4966840;28;20065;-40
2022/08/14 02:41:57;;;;;;;5.25;4.63;;;22.00;81.10;;;;;;4969351;28;20039;-38
2022/08/14 02:44:24;;;;;;;4.97;4.40;;;21.90;81.40;;;;;;4964140;28;20038;-41
2022/08/14 02:46:51;;;;;;;7.35;4.30;;;21.90;81.60;;;;;;4967318;28;20581;-38
2022/08/14 02:49:17;;;;;;;5.22;4.55;;;21.90;81.70;;;;;;4969281;28;20043;-39
2022/08/14 02:51:47;;;;;;;5.22;4.18;;;21.90;82.10;;;;;;4964348;28;20050;-41
2022/08/14 02:54:13;;;;;;;7.00;4.32;;;21.80;82.80;;;;;;4967940;28;20121;-36
2022/08/14 02:56:39;;;;;;;6.65;4.82;;;21.80;82.80;;;;;;4965399;28;20125;-38
2022/08/14 02:59:08;;;;;;;6.47;4.20;;;21.80;83.10;;;;;;4968047;28;20129;-38
2022/08/14 03:01:35;;;;;;;5.88;4.50;;;21.70;83.10;;;;;;4967783;28;20074;-38
2022/08/14 03:04:03;;;;;;;7.13;4.63;;;21.70;83.50;;;;;;4967236;28;20038;-37
2022/08/14 03:06:28;;;;;;;9.80;4.40;;;21.60;83.70;;;;;;4967181;28;20035;-40
2022/08/14 03:08:55;;;;;;;5.30;4.13;;;21.70;83.90;;;;;;4968813;28;20519;-38
2022/08/14 03:11:21;;;;;;;5.72;3.95;;;21.60;84.00;;;;;;4966021;28;20041;-41
2022/08/14 03:13:50;;;;;;;7.07;3.85;;;21.60;84.20;;;;;;4968273;28;20043;-37
2022/08/14 03:16:20;;;;;;;6.10;4.75;;;21.60;84.40;;;;;;4964450;28;20058;-38
2022/08/14 03:18:47;;;;;;;6.28;4.38;;;21.60;85.70;;;;;;4968434;28;20050;-41
2022/08/14 03:21:18;;;;;;;7.93;4.88;;;21.50;85.00;;;;;;4964734;28;20113;-38
2022/08/14 03:23:47;;;;;;;6.23;4.60;;;21.50;85.30;;;;;;4968198;28;20493;-40
2022/08/14 03:26:14;;;;;;;4.90;4.05;;;21.50;85.30;;;;;;4966926;28;20039;-38
2022/08/14 03:28:42;;;;;;;7.70;4.35;;;21.50;85.40;;;;;;4970936;28;20054;-40
2022/08/14 03:31:09;;;;;;;8.27;4.55;;;21.40;85.60;;;;;;4969097;28;20047;-41
2022/08/14 03:33:37;;;;;;;5.35;4.70;;;21.40;85.70;;;;;;4970310;28;20052;-49
2022/08/14 03:36:07;;;;;;;6.13;4.60;;;21.40;85.90;;;;;;4968891;28;20519;-38
2022/08/14 03:38:33;;;;;;;8.55;4.55;;;21.40;86.10;;;;;;4974228;28;20042;-39
2022/08/14 03:40:59;;;;;;;6.55;4.90;;;21.30;86.30;;;;;;4970219;28;20440;-38
2022/08/14 03:43:25;;;;;;;7.80;4.97;;;21.30;86.60;;;;;;4972339;28;20035;-41
2022/08/14 03:45:51;;;;;;;6.28;4.57;;;21.30;86.60;;;;;;4972938;28;20046;-40
2022/08/14 03:48:20;;;;;;;8.75;4.80;;;21.30;86.80;;;;;;4974457;28;20046;-39
2022/08/14 03:50:48;;;;;;;5.50;3.72;;;21.30;86.70;;;;;;4969610;28;20047;-38
2022/08/14 03:53:14;;;;;;;7.05;5.10;;;21.30;86.90;;;;;;4969576;28;20403;-38
2022/08/14 03:55:41;;;;;;;6.55;4.35;;;21.30;87.20;;;;;;4972639;28;20061;-38
2022/08/14 03:58:07;;;;;;;4.95;3.90;;;21.20;87.40;;;;;;4969496;28;20408;-37
2022/08/14 04:00:35;;;;;;;5.60;4.10;;;21.20;87.50;;;;;;4967328;28;20098;-39
2022/08/14 04:03:04;;;;;;;5.45;4.10;;;21.20;87.70;;;;;;4971044;28;20143;-39
2022/08/14 04:05:30;;;;;;;5.60;4.60;;;21.20;88.10;;;;;;4969985;28;20042;-38
2022/08/14 04:07:57;;;;;;;7.82;4.82;;;21.10;88.20;;;;;;4971362;28;20097;-38
2022/08/14 04:10:23;;;;;;;8.05;4.82;;;21.10;88.20;;;;;;4969367;28;20468;-37
2022/08/14 04:12:49;;;;;;;7.22;4.75;;;21.10;88.50;;;;;;4967763;28;20067;-39
2022/08/14 04:15:20;;;;;;;6.35;5.03;;;21.10;88.70;;;;;;4970554;28;20567;-40
2022/08/14 04:17:46;;;;;;;8.25;4.80;;;21.10;88.70;;;;;;4966739;28;20074;-40
2022/08/14 04:20:12;;;;;;;8.82;4.63;;;21.00;89.10;;;;;;4970049;28;20046;-37
2022/08/14 04:22:42;;;;;;;6.60;5.28;;;21.00;89.00;;;;;;4953819;28;20058;-40
2022/08/14 04:25:08;;;;;;;6.82;4.97;;;21.00;89.40;;;;;;4968827;28;20038;-37
2022/08/14 04:27:35;;;;;;;5.97;4.88;;;20.90;89.30;;;;;;4971433;28;20060;-40
2022/08/14 04:30:04;;;;;;;9.65;5.38;;;20.90;89.70;;;;;;4968127;28;20038;-36
2022/08/14 04:32:32;;;;;;;8.23;5.05;;;20.90;89.90;;;;;;4968470;28;20097;-38
2022/08/14 04:35:01;;;;;;;6.07;4.60;;;20.90;90.10;;;;;;4972562;28;20046;-38
2022/08/14 04:45:42;;;;;;;6.68;4.93;;;20.80;90.30;;;;;;4967534;28;20078;-40
2022/08/14 04:48:15;;;;;;;11.27;5.18;;;20.70;90.50;;;;;;4951478;28;20101;-38
2022/08/14 04:50:49;;;;;;;6.55;4.95;;;20.80;90.60;;;;;;4965062;28;20039;-40
2022/08/14 04:53:18;;;;;;;7.57;5.10;;;20.70;90.70;;;;;;4967994;28;20053;-38
2022/08/14 04:55:47;;;;;;;7.57;5.72;;;20.70;90.70;;;;;;4971048;28;20562;-37
2022/08/14 04:58:21;;;;;;;7.00;4.93;;;20.70;90.80;;;;;;4969431;28;20488;-37
2022/08/14 05:00:50;;;;;;;6.70;5.15;;;20.80;90.90;;;;;;4966771;28;20081;-40
2022/08/14 05:03:19;;;;;;;6.75;5.63;;;20.70;90.80;;;;;;4967961;28;20047;-39
2022/08/14 05:05:47;;;;;;;5.72;5.10;;;20.80;90.90;;;;;;4969734;28;20045;-37
2022/08/14 05:08:12;;;;;;;10.77;5.70;;;20.80;90.90;;;;;;4952350;28;20121;-38
2022/08/14 05:10:43;;;;;;;7.10;5.22;;;20.80;91.00;;;;;;4967138;28;20571;-35
2022/08/14 05:13:09;;;;;;;6.07;4.97;;;20.80;91.00;;;;;;4964273;28;20049;-40
2022/08/14 05:15:38;;;;;;;7.13;5.45;;;20.80;91.10;;;;;;4966994;28;20042;-38
2022/08/14 05:18:12;;;;;;;7.53;5.20;;;20.80;91.10;;;;;;4969261;28;20061;-38
2022/08/14 05:20:44;;;;;;;9.10;6.28;;;20.80;91.10;;;;;;4970471;28;20074;-37
2022/08/14 05:23:15;;;;;;;10.02;5.50;;;20.80;91.10;;;;;;4970767;28;20057;-41
2022/08/14 05:25:41;;;;;;;8.52;5.78;;;20.90;91.10;;;;;;4967578;28;20034;-40
2022/08/14 05:28:17;;;;;;;8.00;5.97;;;20.90;91.20;;;;;;4972263;28;20128;-40
2022/08/14 05:30:52;;;;;;;6.90;5.22;;;20.90;91.20;;;;;;4970368;28;20049;-38
2022/08/14 05:33:19;;;;;;;7.70;5.65;;;20.90;91.20;;;;;;4967576;28;20039;-41
2022/08/14 05:35:47;;;;;;;7.05;5.50;;;21.00;91.10;;;;;;4952149;28;20035;-37
2022/08/14 05:38:15;;;;;;;6.53;5.60;;;21.00;91.20;;;;;;4972611;28;20079;-39
2022/08/14 05:40:48;;;;;;;7.80;5.20;;;21.00;91.20;;;;;;4970171;28;20408;-40
2022/08/14 05:43:15;;;;;;;7.43;5.97;;;21.10;91.10;;;;;;4971187;28;20039;-38
2022/08/14 05:45:41;;;;;;;11.43;5.65;;;21.10;91.00;;;;;;4971592;28;20035;-38
2022/08/14 05:48:11;;;;;;;9.60;5.93;;;21.20;90.90;;;;;;4972428;28;20035;-40
2022/08/14 05:50:37;;;;;;;7.05;5.75;;;21.30;90.80;;;;;;4971281;28;20551;-40
2022/08/14 05:53:04;;;;;;;6.88;5.65;;;21.30;90.70;;;;;;4971470;28;20472;-41
2022/08/14 05:55:29;;;;;;;6.85;5.78;;;21.40;90.60;;;;;;4973108;28;20039;-40
2022/08/14 05:57:59;;;;;;;6.15;4.47;;;21.50;90.60;;;;;;4970559;28;20097;-38
2022/08/14 06:00:28;;;;;;;8.57;6.10;;;21.60;90.50;;;;;;4949445;28;20101;-40
2022/08/14 06:02:55;;;;;;;6.25;5.18;;;21.60;90.50;;;;;;4968795;28;20125;-39
2022/08/14 06:05:22;;;;;;;6.95;5.45;;;21.70;90.30;;;;;;4968345;28;20629;-41
2022/08/14 06:07:48;;;;;;;7.95;6.32;;;21.80;90.20;;;;;;4968102;28;20046;-38
2022/08/14 06:10:13;;;;;;;8.52;6.10;;;21.80;90.10;;;;;;4967715;28;20046;-38
2022/08/14 06:12:39;;;;;;;9.05;5.55;;;21.90;90.00;;;;;;4968877;28;20467;-38
2022/08/14 06:15:06;;;;;;;7.22;5.22;;;22.00;89.90;;;;;;4969575;28;20038;-40
2022/08/14 06:17:43;;;;;;;8.45;5.43;;;22.00;89.70;;;;;;4968303;28;20049;-40
2022/08/14 06:20:09;;;;;;;6.97;5.75;;;22.10;89.80;;;;;;4967599;28;20049;-37
2022/08/14 06:22:34;;;;;;;7.38;5.75;;;22.20;89.40;;;;;;4964993;28;20117;-41
2022/08/14 06:25:00;;;;;;;6.97;5.28;;;22.20;89.00;;;;;;4963808;28;20042;-37
2022/08/14 06:27:26;;;;;;;6.15;5.30;;;22.30;88.90;;;;;;4966709;28;20591;-41
2022/08/14 06:29:51;;;;;;;9.30;5.55;;;22.30;88.60;;;;;;4968311;28;20046;-41
2022/08/14 06:32:17;;;;;;;5.65;5.03;;;22.40;88.50;;;;;;4949171;28;20031;-40
2022/08/14 06:34:43;;;;;;;6.40;4.93;;;22.50;88.20;;;;;;4962386;28;20389;-39
2022/08/14 06:37:08;;;;;;;6.93;5.25;;;22.50;88.00;;;;;;4966754;28;20136;-38
2022/08/14 06:39:34;;;;;;;7.20;5.45;;;22.60;87.90;;;;;;4961695;28;20181;-38
2022/08/14 06:42:00;;;;;;;9.48;5.57;;;22.70;87.50;;;;;;4964582;28;20054;-37
2022/08/14 06:44:27;;;;;;;6.10;5.00;;;22.70;87.30;;;;;;4963732;28;20492;-41
2022/08/14 06:46:52;;;;;;;6.70;5.10;;;22.80;86.90;;;;;;4963003;28;20477;-40
2022/08/14 06:49:18;;;;;;;6.55;4.93;;;22.90;86.70;;;;;;4965057;28;20039;-42
2022/08/14 06:51:45;;;;;;;8.80;6.38;;;23.00;86.50;;;;;;4965093;28;20055;-41
2022/08/14 06:54:12;;;;;;;6.63;5.95;;;23.00;86.10;;;;;;4965191;28;20516;-39
2022/08/14 06:56:38;;;;;;;8.18;5.38;;;23.10;85.80;;;;;;4961239;28;20050;-39
2022/08/14 06:59:04;;;;;;;7.57;5.90;;;23.20;85.50;;;;;;4967680;28;20043;-37
2022/08/14 07:06:59;;;;;;;6.70;5.65;;;23.30;85.10;;;;;;4965519;28;20074;-39
2022/08/14 07:09:25;;;;;;;6.43;5.53;;;23.40;85.00;;;;;;4968536;28;20077;-39
2022/08/14 07:11:51;;;;;;;9.50;5.65;;;23.50;85.00;;;;;;4966855;28;20038;-40
2022/08/14 07:14:17;;;;;;;8.13;5.75;;;23.60;84.70;;;;;;4973771;28;20035;-42
2022/08/14 07:16:42;;;;;;;8.93;5.97;;;23.60;84.50;;;;;;4972643;28;20121;-43
2022/08/14 07:19:08;;;;;;;10.50;5.05;;;23.60;84.20;;;;;;4965992;28;20134;-41
2022/08/14 07:21:36;;;;;;;5.80;5.03;;;23.70;84.20;;;;;;4968849;28;20174;-43
2022/08/14 07:24:02;;;;;;;8.57;6.10;;;23.70;84.40;;;;;;4971125;28;20050;-41
2022/08/14 07:26:28;;;;;;;9.00;5.43;;;23.80;83.70;;;;;;4972421;28;20035;-38
2022/08/14 07:28:54;;;;;;;9.25;5.40;;;23.90;83.60;;;;;;4970417;28;20506;-44
2022/08/14 07:31:19;;;;;;;9.10;5.38;;;23.90;83.00;;;;;;4965801;28;20038;-43
2022/08/14 07:33:50;;;;;;;8.00;6.00;;;24.00;82.70;;;;;;4972884;28;20038;-42
2022/08/14 07:36:17;;;;;;;6.50;5.75;;;24.10;82.20;;;;;;4971149;28;20125;-43
2022/08/14 07:38:43;;;;;;;6.70;5.22;;;24.10;82.00;;;;;;4972885;28;20473;-42
2022/08/14 07:41:11;;;;;;;6.72;5.65;;;24.20;82.10;;;;;;4969115;28;20066;-38
2022/08/14 07:43:38;;;;;;;6.63;5.30;;;24.20;81.90;;;;;;4965013;28;20043;-47
2022/08/14 07:46:05;;;;;;;7.22;4.53;;;24.40;81.80;;;;;;4968869;28;20460;-40
2022/08/14 07:48:31;;;;;;;5.90;5.03;;;24.50;81.40;;;;;;4964310;28;20034;-42
2022/08/14 07:50:57;;;;;;;7.97;5.68;;;24.60;80.90;;;;;;4966613;28;20043;-44
2022/08/14 07:53:23;;;;;;;5.90;5.20;;;24.70;80.30;;;;;;4959390;28;20424;-47
2022/08/14 07:55:49;;;;;;;10.35;5.80;;;24.80;80.00;;;;;;4968021;28;20118;-47
2022/08/14 07:58:16;;;;;;;5.75;5.10;;;24.90;79.80;;;;;;4969034;28;20031;-42
2022/08/14 08:00:43;;;;;;;6.82;5.47;;;25.00;79.40;;;;;;4970367;28;20473;-40
2022/08/14 08:03:09;;;;;;;6.25;4.80;;;25.10;78.70;;;;;;4965921;28;20042;-47
2022/08/14 08:05:36;;;;;;;6.18;4.82;;;25.20;78.50;;;;;;4967928;28;20042;-40
2022/08/14 08:08:03;;;;;;;7.72;5.47;;;25.30;77.60;;;;;;4971834;28;20042;-43
2022/08/14 08:10:30;;;;;;;8.85;5.63;;;25.40;76.80;;;;;;4972574;28;20046;-45
2022/08/14 08:13:04;;;;;;;5.78;4.93;;;25.50;76.40;;;;;;4968000;28;20126;-45
2022/08/14 08:15:35;;;;;;;5.95;4.68;;;25.50;75.80;;;;;;4967572;28;20047;-44
2022/08/14 08:18:06;;;;;;;5.90;5.25;;;25.60;75.70;;;;;;4968173;28;20039;-43
2022/08/14 08:20:39;;;;;;;6.85;5.13;;;25.70;75.40;;;;;;4970992;28;20046;-49
2022/08/14 08:23:06;;;;;;;7.25;5.18;;;25.80;74.10;;;;;;4969780;28;20058;-43
2022/08/14 08:25:34;;;;;;;5.93;5.32;;;25.90;73.60;;;;;;4970576;28;20031;-45
2022/08/14 08:28:08;;;;;;;7.28;4.78;;;26.00;73.10;;;;;;4970527;28;20514;-39
2022/08/14 08:30:37;;;;;;;5.72;4.82;;;26.10;73.10;;;;;;4970625;28;20468;-43
2022/08/14 08:33:04;;;;;;;5.07;4.40;;;26.20;72.50;;;;;;4972464;28;20066;-45
2022/08/14 08:35:33;;;;;;;6.32;5.25;;;26.40;73.50;;;;;;4953505;28;20290;-41
2022/08/14 08:38:08;;;;;;;6.15;4.80;;;26.50;70.70;;;;;;4968242;28;20113;-42
2022/08/14 08:40:36;;;;;;;6.18;4.93;;;26.60;71.40;;;;;;4971078;28;20182;-36
2022/08/14 08:43:05;;;;;;;6.75;4.88;;;26.70;70.80;;;;;;4970504;28;20043;-37
2022/08/14 08:45:31;;;;;;;5.70;4.53;;;26.80;70.30;;;;;;4965789;28;20040;-36
2022/08/14 08:47:57;;;;;;;5.40;4.15;;;26.90;70.10;;;;;;4971372;28;20049;-45
2022/08/14 08:50:31;;;;;;;6.30;4.95;;;27.00;69.40;;;;;;4969132;28;20392;-48
2022/08/14 08:53:03;;;;;;;7.07;5.28;;;27.20;68.50;;;;;;4965571;28;20148;-36
2022/08/14 08:55:43;;;;;;;8.32;5.30;;;27.30;67.40;;;;;;4967520;28;20042;-35
2022/08/14 08:58:11;;;;;;;7.93;5.13;;;27.30;65.20;;;;;;4952121;28;20185;-37
2022/08/14 09:00:39;;;;;;;6.85;4.55;;;27.40;66.20;;;;;;4966968;28;20125;-35
2022/08/14 09:03:18;;;;;;;6.07;4.15;;;27.60;65.50;;;;;;4968132;28;20050;-36
2022/08/14 09:05:51;;;;;;;6.28;4.10;;;27.70;62.70;;;;;;4962729;28;20109;-35
2022/08/14 09:08:24;;;;;;;5.10;3.97;;;27.70;62.40;;;;;;4958497;28;20043;-38
2022/08/14 09:10:50;;;;;;;4.85;4.10;;;27.90;59.40;;;;;;4960632;28;20046;-35
2022/08/14 09:13:18;;;;;;;7.13;4.18;;;27.90;60.30;;;;;;4969448;28;20045;-47
2022/08/14 09:15:46;;;;;;;6.07;3.78;;;28.00;58.40;;;;;;4970973;28;20385;-44
2022/08/14 09:18:13;;;;;;;5.80;4.30;;;28.00;57.20;;;;;;4966184;28;20043;-44
2022/08/14 09:20:41;;;;;;;5.15;4.07;;;28.10;56.70;;;;;;4969021;28;20053;-49
2022/08/14 09:23:09;;;;;;;5.65;4.20;;;28.20;56.90;;;;;;4966984;28;20058;-42
2022/08/14 09:25:35;;;;;;;4.00;3.50;;;28.20;55.40;;;;;;4969299;28;20050;-44
2022/08/14 09:28:03;;;;;;;4.93;3.60;;;28.30;53.70;;;;;;4964317;28;20046;-42
2022/08/14 09:30:31;;;;;;;5.43;3.70;;;28.40;53.10;;;;;;4969003;28;20040;-43
2022/08/14 09:33:17;;;;;;;5.10;3.92;;;28.50;51.70;;;;;;4968476;28;20039;-41
2022/08/14 09:36:16;;;;;;;5.15;3.72;;;28.60;49.90;;;;;;4964680;28;20061;-43
2022/08/14 09:39:19;;;;;;;5.47;3.60;;;28.70;49.60;;;;;;4966588;28;20101;-42
2022/08/14 09:42:20;;;;;;;4.57;3.72;;;28.80;48.80;;;;;;4967681;28;20385;-45
2022/08/14 09:45:04;;;;;;;5.00;3.25;;;28.90;48.40;;;;;;4965465;28;20051;-41
2022/08/14 09:47:59;;;;;;;6.57;3.40;;;28.90;48.40;;;;;;4967686;28;20042;-38
2022/08/14 09:50:32;;;;;;;4.78;3.65;;;29.10;47.90;;;;;;4952681;28;20078;-41
2022/08/14 09:53:06;;;;;;;5.30;3.47;;;29.10;47.50;;;;;;4964947;28;20043;-43
2022/08/14 09:55:34;;;;;;;4.82;3.55;;;29.20;46.80;;;;;;4966409;28;20126;-42
2022/08/14 09:58:15;;;;;;;6.00;3.67;;;29.30;46.50;;;;;;4969895;28;20043;-37
2022/08/14 10:00:53;;;;;;;4.07;3.63;;;29.50;45.90;;;;;;4967169;28;20078;-35
2022/08/14 10:03:29;;;;;;;4.97;3.53;;;29.60;45.70;;;;;;4967554;28;20488;-35
2022/08/14 10:06:08;;;;;;;4.70;3.42;;;29.60;45.10;;;;;;4966854;28;20563;-35
2022/08/14 10:08:52;;;;;;;8.38;3.70;;;29.80;45.80;;;;;;4968097;28;20039;-36
2022/08/14 10:11:20;;;;;;;6.55;3.50;;;29.90;44.10;;;;;;4963260;28;20031;-34
2022/08/14 10:13:51;;;;;;;4.75;3.47;;;30.00;43.60;;;;;;4969768;28;20174;-36
2022/08/14 10:16:17;;;;;;;5.03;3.42;;;29.90;43.10;;;;;;4965540;28;20516;-36
2022/08/14 10:18:43;;;;;;;5.00;3.10;;;29.90;43.50;;;;;;4964800;28;20050;-38
2022/08/14 10:21:16;;;;;;;6.00;3.67;;;30.00;43.70;;;;;;4969239;28;20480;-46
2022/08/14 10:23:48;;;;;;;5.03;3.35;;;30.10;43.10;;;;;;4969675;28;20077;-47
2022/08/14 10:26:17;;;;;;;3.92;3.45;;;30.20;43.20;;;;;;4965987;28;20113;-47
2022/08/14 10:28:47;;;;;;;6.88;3.45;;;30.30;42.80;;;;;;4968830;28;20046;-42
2022/08/14 10:31:19;;;;;;;6.85;3.50;;;30.30;42.00;;;;;;4969672;28;20045;-47
2022/08/14 10:33:59;;;;;;;3.60;3.22;;;30.30;41.50;;;;;;4966157;28;20078;-51
2022/08/14 10:37:01;;;;;;;4.80;3.17;;;30.40;41.20;;;;;;4968863;28;20057;-42
2022/08/14 10:39:26;;;;;;;;;;;30.50;41.40;;;;;;4948182;28;20049;-44
2022/08/14 10:42:22;;;;;;;4.47;3.30;;;30.60;41.40;;;;;;4965369;28;20291;-47
2022/08/14 10:44:49;;;;;;;4.47;3.38;;;30.80;41.70;;;;;;4947105;28;20462;-44
2022/08/14 10:47:17;;;;;;;4.43;3.50;;;30.80;41.10;;;;;;4973149;28;20039;-44
2022/08/14 10:49:57;;;;;;;3.30;3.00;;;30.90;41.00;;;;;;4976158;28;20053;-43
2022/08/14 10:52:25;;;;;;;4.05;3.35;;;31.00;40.40;;;;;;4974055;28;20073;-47
2022/08/14 10:54:51;;;;;;;4.00;3.42;;;31.00;40.60;;;;;;4972383;28;20047;-44
2022/08/14 10:57:20;;;;;;;4.75;3.03;;;31.10;40.60;;;;;;4973462;28;20035;-49
2022/08/14 10:59:56;;;;;;;5.20;3.20;;;31.20;40.30;;;;;;4973044;28;20047;-37
2022/08/14 11:02:36;;;;;;;5.10;3.58;;;31.20;39.60;;;;;;4973216;28;20142;-36
2022/08/14 11:05:12;;;;;;;3.78;3.35;;;31.30;39.50;;;;;;4972510;28;20047;-36
2022/08/14 11:07:52;;;;;;;4.43;3.83;;;31.40;39.20;;;;;;4974250;28;20070;-38
2022/08/14 11:10:17;;;;;;;3.85;3.28;;;31.40;39.10;;;;;;4972100;28;20109;-35
2022/08/14 11:12:49;;;;;;;4.63;4.22;;;31.50;39.30;;;;;;4970084;28;20053;-35
2022/08/14 11:15:20;;;;;;;5.40;3.60;;;31.60;39.20;;;;;;4972732;28;20567;-36
2022/08/14 11:17:47;;;;;;;4.18;3.50;;;31.60;38.80;;;;;;4973512;28;20908;-35
2022/08/14 11:20:16;;;;;;;5.10;3.65;;;31.70;38.40;;;;;;4973914;28;20047;-35
2022/08/14 11:22:42;;;;;;;3.53;2.95;;;31.70;38.60;;;;;;4974319;28;20098;-35
2022/08/14 11:25:13;;;;;;;4.65;3.58;;;31.70;38.30;;;;;;4974418;28;20049;-35
2022/08/14 11:27:42;;;;;;;3.88;3.47;;;31.70;38.00;;;;;;4970354;28;20061;-36
2022/08/14 11:30:14;;;;;;;3.58;3.17;;;31.80;38.40;;;;;;4974243;28;20085;-36
2022/08/14 11:32:44;;;;;;;4.20;3.00;;;31.90;37.80;;;;;;4972692;28;20051;-35
2022/08/14 11:35:18;;;;;;;5.50;3.42;;;32.00;37.70;;;;;;4974270;28;20496;-35
2022/08/14 11:38:01;;;;;;;4.70;3.33;;;32.10;37.90;;;;;;4972409;28;20502;-38
2022/08/14 11:40:33;;;;;;;3.58;3.28;;;32.20;37.70;;;;;;4972870;28;20166;-37
2022/08/14 11:43:00;;;;;;;4.20;3.38;;;32.30;37.70;;;;;;4972364;28;20555;-36
2022/08/14 11:45:33;;;;;;;5.20;3.10;;;32.40;37.50;;;;;;4973446;28;20070;-35
2022/08/14 11:48:01;;;;;;;4.60;2.92;;;32.50;37.30;;;;;;4970763;28;21477;-36
2022/08/14 11:50:29;;;;;;;3.88;3.10;;;32.60;37.00;;;;;;4971254;28;20039;-36
2022/08/14 11:52:56;;;;;;;3.78;3.00;;;32.70;36.80;;;;;;4969351;28;20129;-35
2022/08/14 11:55:28;;;;;;;4.80;3.13;;;32.80;36.80;;;;;;4959123;28;20046;-36
2022/08/14 11:58:07;;;;;;;3.65;3.15;;;32.90;36.00;;;;;;4971020;28;20046;-35
2022/08/14 12:00:33;;;;;;;4.03;3.08;;;32.80;34.70;;;;;;4969458;28;20042;-35
2022/08/14 12:03:00;;;;;;;5.85;3.10;;;32.80;35.30;;;;;;4947946;28;20031;-35
2022/08/14 12:05:38;;;;;;;3.80;3.40;;;32.80;35.00;;;;;;4963572;28;20030;-36
2022/08/14 12:08:08;;;;;;;3.30;3.00;;;32.90;35.00;;;;;;4961934;28;20117;-36
2022/08/14 12:10:35;;;;;;;3.70;3.10;;;32.90;34.20;;;;;;4965897;28;20050;-36
2022/08/14 12:13:14;;;;;;;5.57;3.83;;;32.90;34.30;;;;;;4969217;28;20092;-36
2022/08/14 12:15:41;;;;;;;5.03;3.03;;;32.90;34.20;;;;;;4961635;28;20050;-36
2022/08/14 12:18:07;;;;;;;3.30;2.90;;;32.90;33.80;;;;;;4969450;28;20048;-36
2022/08/14 12:20:38;;;;;;;3.72;2.95;;;33.00;33.50;;;;;;4969753;28;20042;-35
2022/08/14 12:23:06;;;;;;;4.05;3.30;;;33.10;33.20;;;;;;4966432;28;20051;-37
2022/08/14 12:25:33;;;;;;;9.63;3.38;;;33.00;32.90;;;;;;4964471;28;20129;-37
2022/08/14 12:28:04;;;;;;;3.03;2.70;;;33.00;32.80;;;;;;4970282;28;20484;-36
2022/08/14 12:30:34;;;;;;;4.60;3.83;;;33.20;32.30;;;;;;4970239;28;20061;-49
2022/08/14 12:33:07;;;;;;;5.43;3.00;;;33.30;32.20;;;;;;4956563;28;20515;-43
2022/08/14 12:35:37;;;;;;;4.70;3.20;;;33.40;31.40;;;;;;4962880;28;20046;-41
2022/08/14 12:38:03;;;;;;;4.50;2.80;;;33.30;31.00;;;;;;4965186;28;20546;-47
2022/08/14 12:40:30;;;;;;;3.17;2.78;;;33.30;30.90;;;;;;4966218;28;20079;-50
2022/08/14 12:43:02;;;;;;;3.58;2.88;;;33.50;31.10;;;;;;4962246;28;20057;-40
2022/08/14 12:45:34;;;;;;;3.08;2.58;;;33.70;31.40;;;;;;4961398;28;20076;-41
2022/08/14 12:48:03;;;;;;;3.17;2.53;;;33.90;31.20;;;;;;4968401;28;20038;-43
2022/08/14 12:50:37;;;;;;;3.20;2.90;;;34.10;30.70;;;;;;4968234;28;20461;-43
2022/08/14 12:53:02;;;;;;;6.13;3.10;;;34.40;30.70;;;;;;4968012;28;20038;-42
2022/08/14 12:55:28;;;;;;;3.70;3.38;;;34.60;30.50;;;;;;4966376;28;20045;-48
2022/08/14 12:57:59;;;;;;;4.18;3.42;;;34.30;30.20;;;;;;4948459;28;20042;-41
2022/08/14 13:00:25;;;;;;;3.83;3.10;;;34.20;30.80;;;;;;4966396;28;20109;-50
2022/08/14 13:02:54;;;;;;;3.60;3.17;;;34.10;30.70;;;;;;4968381;28;20436;-46
2022/08/14 13:05:25;;;;;;;4.38;3.20;;;33.90;31.00;;;;;;4968418;28;20496;-49
2022/08/14 13:07:51;;;;;;;;;;;33.80;31.40;;;;;;4970325;28;20146;-49
2022/08/14 13:10:20;;;;;;;4.75;3.13;;;34.00;31.10;;;;;;4970687;28;19971;-42
2022/08/14 13:12:47;;;;;;;4.03;3.03;;;34.10;31.80;;;;;;4969381;28;20043;-48
2022/08/14 13:15:14;;;;;;;4.07;3.35;;;34.40;31.40;;;;;;4969973;28;20057;-43